SWA3148 KLAS-KLAX
Flight info
| Callsign | SWA3148 |
|---|---|
| Flight time | 0h 43m |
| Altitude | 27000 |
| Route | RADYR2 BLAQQ SHTNR ANJLL4 |
| Aircraft | B738/M-SDE2E3FGHIRWXY/LB1 |
Departure
| Time | 2026-05-04 00:19 |
|---|---|
| Airport | Harry Reid International Airport (KLAS) |
Arrival
| Time | 2026-05-04 01:02 |
|---|---|
| Airport | Los Angeles International Airport (KLAX) |
| Time | Latitude | Longitude | Altitude | Speed | Heading |
|---|---|---|---|---|---|
| 2026-05-03 23:59 | 36.08011 | -115.14562 | 2187 ft | 0 kts | 277° |
| 2026-05-04 00:04 | 36.08010 | -115.14547 | 2189 ft | 4 kts | 272° |
| 2026-05-04 00:04 | 36.08012 | -115.14514 | 2188 ft | 4 kts | 249° |
| 2026-05-04 00:04 | 36.08026 | -115.14490 | 2189 ft | 4 kts | 206° |
| 2026-05-04 00:05 | 36.08040 | -115.14485 | 2190 ft | 0 kts | 180° |
| 2026-05-04 00:07 | 36.08039 | -115.14485 | 2190 ft | 1 kts | 180° |
| 2026-05-04 00:07 | 36.07999 | -115.14485 | 2191 ft | 9 kts | 180° |
| 2026-05-04 00:07 | 36.07936 | -115.14484 | 2187 ft | 8 kts | 180° |
| 2026-05-04 00:07 | 36.07890 | -115.14484 | 2190 ft | 6 kts | 179° |
| 2026-05-04 00:08 | 36.07841 | -115.14460 | 2188 ft | 11 kts | 127° |
| 2026-05-04 00:08 | 36.07828 | -115.14343 | 2188 ft | 16 kts | 92° |
| 2026-05-04 00:08 | 36.07798 | -115.14245 | 2187 ft | 13 kts | 161° |
| 2026-05-04 00:08 | 36.07754 | -115.14162 | 2188 ft | 14 kts | 89° |
| 2026-05-04 00:09 | 36.07754 | -115.14016 | 2187 ft | 20 kts | 90° |
| 2026-05-04 00:09 | 36.07754 | -115.13817 | 2188 ft | 26 kts | 90° |
| 2026-05-04 00:09 | 36.07755 | -115.13561 | 2188 ft | 32 kts | 90° |
| 2026-05-04 00:09 | 36.07755 | -115.13293 | 2188 ft | 31 kts | 90° |
| 2026-05-04 00:10 | 36.07755 | -115.13032 | 2188 ft | 29 kts | 90° |
| 2026-05-04 00:10 | 36.07755 | -115.12792 | 2187 ft | 27 kts | 90° |
| 2026-05-04 00:10 | 36.07755 | -115.12563 | 2187 ft | 26 kts | 90° |
| 2026-05-04 00:10 | 36.07756 | -115.12359 | 2187 ft | 22 kts | 89° |
| 2026-05-04 00:11 | 36.07756 | -115.12206 | 2187 ft | 11 kts | 90° |
| 2026-05-04 00:11 | 36.07747 | -115.12144 | 2187 ft | 2 kts | 124° |
| 2026-05-04 00:11 | 36.07741 | -115.12136 | 2191 ft | 0 kts | 133° |
| 2026-05-04 00:15 | 36.07700 | -115.12124 | 2189 ft | 9 kts | 180° |
| 2026-05-04 00:15 | 36.07651 | -115.12133 | 2189 ft | 6 kts | 218° |
| 2026-05-04 00:15 | 36.07643 | -115.12166 | 2189 ft | 2 kts | 270° |
| 2026-05-04 00:15 | 36.07643 | -115.12167 | 2189 ft | 0 kts | 270° |
| 2026-05-04 00:18 | 36.07643 | -115.12171 | 2189 ft | 4 kts | 270° |
| 2026-05-04 00:18 | 36.07642 | -115.12476 | 2187 ft | 71 kts | 270° |
| 2026-05-04 00:18 | 36.07640 | -115.13367 | 2189 ft | 134 kts | 270° |
| 2026-05-04 00:19 | 36.07624 | -115.14726 | 2341 ft | 172 kts | 268° |
| 2026-05-04 00:19 | 36.07683 | -115.16158 | 3165 ft | 167 kts | 267° |
| 2026-05-04 00:19 | 36.07702 | -115.17571 | 3959 ft | 164 kts | 266° |
| 2026-05-04 00:19 | 36.07712 | -115.19071 | 4458 ft | 187 kts | 265° |
| 2026-05-04 00:20 | 36.07639 | -115.20747 | 4915 ft | 201 kts | 257° |
| 2026-05-04 00:20 | 36.07368 | -115.22495 | 5364 ft | 211 kts | 255° |
| 2026-05-04 00:20 | 36.07027 | -115.24333 | 5662 ft | 228 kts | 243° |
| 2026-05-04 00:20 | 36.06080 | -115.25893 | 6191 ft | 233 kts | 221° |
| 2026-05-04 00:21 | 36.04658 | -115.26994 | 6592 ft | 249 kts | 202° |
| 2026-05-04 00:21 | 36.03008 | -115.27730 | 7303 ft | 253 kts | 200° |
| 2026-05-04 00:21 | 36.01334 | -115.28467 | 7785 ft | 257 kts | 200° |
| 2026-05-04 00:21 | 35.99637 | -115.29226 | 8012 ft | 264 kts | 199° |
| 2026-05-04 00:22 | 35.97873 | -115.29834 | 8454 ft | 267 kts | 193° |
| 2026-05-04 00:22 | 35.96069 | -115.30279 | 9443 ft | 265 kts | 191° |
| 2026-05-04 00:22 | 35.94228 | -115.30705 | 10152 ft | 270 kts | 191° |
| 2026-05-04 00:22 | 35.92325 | -115.31146 | 10562 ft | 290 kts | 191° |
| 2026-05-04 00:23 | 35.90258 | -115.31633 | 10745 ft | 313 kts | 191° |
| 2026-05-04 00:23 | 35.88045 | -115.32162 | 11070 ft | 330 kts | 191° |
| 2026-05-04 00:23 | 35.85751 | -115.32716 | 11562 ft | 341 kts | 191° |
| 2026-05-04 00:23 | 35.83416 | -115.33283 | 12315 ft | 342 kts | 191° |
| 2026-05-04 00:24 | 35.81071 | -115.33855 | 13086 ft | 345 kts | 191° |
| 2026-05-04 00:24 | 35.78696 | -115.34436 | 13719 ft | 350 kts | 192° |
| 2026-05-04 00:24 | 35.76291 | -115.35025 | 14391 ft | 353 kts | 192° |
| 2026-05-04 00:24 | 35.73860 | -115.35620 | 15018 ft | 357 kts | 192° |
| 2026-05-04 00:25 | 35.71442 | -115.36211 | 15657 ft | 361 kts | 192° |
| 2026-05-04 00:25 | 35.68934 | -115.36825 | 16291 ft | 365 kts | 192° |
| 2026-05-04 00:25 | 35.66429 | -115.37438 | 16862 ft | 370 kts | 192° |
| 2026-05-04 00:25 | 35.63897 | -115.38056 | 17456 ft | 374 kts | 192° |
| 2026-05-04 00:26 | 35.61328 | -115.38668 | 18064 ft | 377 kts | 190° |
| 2026-05-04 00:26 | 35.58680 | -115.38777 | 18552 ft | 385 kts | 179° |
| 2026-05-04 00:26 | 35.56036 | -115.38537 | 19087 ft | 388 kts | 179° |
| 2026-05-04 00:26 | 35.53330 | -115.38283 | 19599 ft | 391 kts | 180° |
| 2026-05-04 00:27 | 35.50599 | -115.38060 | 20148 ft | 393 kts | 181° |
| 2026-05-04 00:27 | 35.47859 | -115.37860 | 20690 ft | 394 kts | 182° |
| 2026-05-04 00:27 | 35.45118 | -115.37803 | 21201 ft | 391 kts | 192° |
| 2026-05-04 00:27 | 35.42507 | -115.38572 | 21688 ft | 383 kts | 207° |
| 2026-05-04 00:28 | 35.40160 | -115.39969 | 22286 ft | 378 kts | 212° |
| 2026-05-04 00:28 | 35.37836 | -115.41486 | 22856 ft | 378 kts | 214° |
| 2026-05-04 00:28 | 35.35495 | -115.43036 | 23422 ft | 377 kts | 214° |
| 2026-05-04 00:28 | 35.33214 | -115.44534 | 23915 ft | 376 kts | 214° |
| 2026-05-04 00:29 | 35.30906 | -115.46034 | 24431 ft | 374 kts | 214° |
| 2026-05-04 00:29 | 35.28612 | -115.47512 | 24920 ft | 373 kts | 214° |
| 2026-05-04 00:29 | 35.26311 | -115.48987 | 25433 ft | 371 kts | 214° |
| 2026-05-04 00:29 | 35.24017 | -115.50454 | 25939 ft | 370 kts | 215° |
| 2026-05-04 00:30 | 35.21754 | -115.51899 | 26419 ft | 370 kts | 215° |
| 2026-05-04 00:30 | 35.19476 | -115.53353 | 26939 ft | 369 kts | 215° |
| 2026-05-04 00:30 | 35.17189 | -115.54813 | 27301 ft | 374 kts | 215° |
| 2026-05-04 00:30 | 35.14862 | -115.56299 | 27538 ft | 381 kts | 215° |
| 2026-05-04 00:31 | 35.12549 | -115.57926 | 27689 ft | 383 kts | 223° |
| 2026-05-04 00:31 | 35.10556 | -115.60080 | 27775 ft | 385 kts | 230° |
| 2026-05-04 00:31 | 35.08684 | -115.62463 | 27765 ft | 392 kts | 231° |
| 2026-05-04 00:31 | 35.06812 | -115.64916 | 27776 ft | 397 kts | 232° |
| 2026-05-04 00:32 | 35.04920 | -115.67395 | 27774 ft | 400 kts | 231° |
| 2026-05-04 00:32 | 35.03042 | -115.69835 | 27754 ft | 398 kts | 231° |
| 2026-05-04 00:32 | 35.01145 | -115.72277 | 27756 ft | 395 kts | 231° |
| 2026-05-04 00:32 | 34.99256 | -115.74695 | 27751 ft | 393 kts | 231° |
| 2026-05-04 00:33 | 34.97367 | -115.77102 | 27754 ft | 392 kts | 231° |
| 2026-05-04 00:33 | 34.93586 | -115.81913 | 27749 ft | 392 kts | 231° |
| 2026-05-04 00:33 | 34.91717 | -115.84288 | 27759 ft | 392 kts | 231° |
| 2026-05-04 00:34 | 34.89823 | -115.86693 | 27747 ft | 393 kts | 231° |
| 2026-05-04 00:34 | 34.87931 | -115.89094 | 27748 ft | 394 kts | 231° |
| 2026-05-04 00:34 | 34.86025 | -115.91511 | 27738 ft | 395 kts | 231° |
| 2026-05-04 00:34 | 34.84121 | -115.93923 | 27746 ft | 395 kts | 231° |
| 2026-05-04 00:35 | 34.82213 | -115.96339 | 27739 ft | 396 kts | 231° |
| 2026-05-04 00:35 | 34.80302 | -115.98758 | 27737 ft | 397 kts | 231° |
| 2026-05-04 00:35 | 34.78387 | -116.01177 | 27743 ft | 397 kts | 231° |
| 2026-05-04 00:35 | 34.76469 | -116.03605 | 27749 ft | 398 kts | 231° |
| 2026-05-04 00:36 | 34.74553 | -116.06040 | 27741 ft | 398 kts | 231° |
| 2026-05-04 00:36 | 34.72677 | -116.08425 | 27729 ft | 389 kts | 231° |
| 2026-05-04 00:36 | 34.70831 | -116.10772 | 27740 ft | 381 kts | 231° |
| 2026-05-04 00:36 | 34.69001 | -116.13105 | 27741 ft | 381 kts | 231° |
| 2026-05-04 00:37 | 34.67165 | -116.15447 | 27750 ft | 383 kts | 231° |
| 2026-05-04 00:37 | 34.65322 | -116.17795 | 27749 ft | 384 kts | 231° |
| 2026-05-04 00:37 | 34.63476 | -116.20142 | 27761 ft | 385 kts | 231° |
| 2026-05-04 00:37 | 34.61616 | -116.22505 | 27777 ft | 386 kts | 231° |
| 2026-05-04 00:38 | 34.59761 | -116.24858 | 27772 ft | 385 kts | 231° |
| 2026-05-04 00:38 | 34.57910 | -116.27203 | 27778 ft | 385 kts | 231° |
| 2026-05-04 00:38 | 34.56059 | -116.29547 | 27797 ft | 384 kts | 231° |
| 2026-05-04 00:38 | 34.54228 | -116.31864 | 27793 ft | 384 kts | 231° |
| 2026-05-04 00:39 | 34.52381 | -116.34201 | 27795 ft | 384 kts | 231° |
| 2026-05-04 00:39 | 34.50536 | -116.36533 | 27807 ft | 383 kts | 231° |
| 2026-05-04 00:39 | 34.48691 | -116.38865 | 27796 ft | 383 kts | 231° |
| 2026-05-04 00:39 | 34.46847 | -116.41194 | 27805 ft | 383 kts | 231° |
| 2026-05-04 00:40 | 34.45597 | -116.42772 | 27803 ft | 383 kts | 231° |
| 2026-05-04 00:40 | 34.43149 | -116.45857 | 27804 ft | 382 kts | 231° |
| 2026-05-04 00:40 | 34.41450 | -116.48306 | 27799 ft | 378 kts | 240° |
| 2026-05-04 00:40 | 34.40206 | -116.51099 | 27802 ft | 375 kts | 246° |
| 2026-05-04 00:41 | 34.39065 | -116.53949 | 27553 ft | 379 kts | 246° |
| 2026-05-04 00:41 | 34.37926 | -116.56788 | 27135 ft | 378 kts | 246° |
| 2026-05-04 00:41 | 34.36768 | -116.59639 | 26638 ft | 374 kts | 245° |
| 2026-05-04 00:41 | 34.35623 | -116.62427 | 26507 ft | 366 kts | 245° |
| 2026-05-04 00:42 | 34.34486 | -116.65185 | 26341 ft | 368 kts | 245° |
| 2026-05-04 00:42 | 34.33342 | -116.67955 | 26123 ft | 369 kts | 245° |
| 2026-05-04 00:42 | 34.32213 | -116.70733 | 25591 ft | 365 kts | 245° |
| 2026-05-04 00:42 | 34.31123 | -116.73444 | 25111 ft | 352 kts | 246° |
| 2026-05-04 00:43 | 34.30074 | -116.76063 | 24655 ft | 342 kts | 245° |
| 2026-05-04 00:43 | 34.29041 | -116.78638 | 24179 ft | 340 kts | 245° |
| 2026-05-04 00:43 | 34.28011 | -116.81204 | 23718 ft | 338 kts | 245° |
| 2026-05-04 00:43 | 34.26984 | -116.83756 | 23231 ft | 337 kts | 245° |
| 2026-05-04 00:44 | 34.25957 | -116.86305 | 22710 ft | 337 kts | 245° |
| 2026-05-04 00:44 | 34.24935 | -116.88840 | 22235 ft | 334 kts | 245° |
| 2026-05-04 00:44 | 34.23930 | -116.91328 | 21774 ft | 332 kts | 245° |
| 2026-05-04 00:44 | 34.22921 | -116.93823 | 21330 ft | 329 kts | 245° |
| 2026-05-04 00:45 | 34.21919 | -116.96300 | 20889 ft | 326 kts | 245° |
| 2026-05-04 00:45 | 34.20949 | -116.98765 | 20460 ft | 323 kts | 248° |
| 2026-05-04 00:45 | 34.20190 | -117.01321 | 20033 ft | 323 kts | 251° |
| 2026-05-04 00:45 | 34.19523 | -117.03927 | 19566 ft | 325 kts | 252° |
| 2026-05-04 00:46 | 34.18871 | -117.06492 | 19178 ft | 322 kts | 252° |
| 2026-05-04 00:46 | 34.18194 | -117.09070 | 18754 ft | 321 kts | 252° |
| 2026-05-04 00:46 | 34.17505 | -117.11640 | 18309 ft | 321 kts | 251° |
| 2026-05-04 00:46 | 34.16812 | -117.14202 | 17843 ft | 320 kts | 251° |
| 2026-05-04 00:47 | 34.16117 | -117.16754 | 17395 ft | 320 kts | 251° |
| 2026-05-04 00:47 | 34.15417 | -117.19301 | 16943 ft | 319 kts | 250° |
| 2026-05-04 00:47 | 34.14716 | -117.21841 | 16523 ft | 317 kts | 250° |
| 2026-05-04 00:47 | 34.14023 | -117.24360 | 16099 ft | 316 kts | 250° |
| 2026-05-04 00:48 | 34.13340 | -117.26840 | 15697 ft | 314 kts | 250° |
| 2026-05-04 00:48 | 34.12651 | -117.29342 | 15292 ft | 313 kts | 250° |
| 2026-05-04 00:48 | 34.11962 | -117.31839 | 14893 ft | 314 kts | 249° |
| 2026-05-04 00:48 | 34.11266 | -117.34358 | 14478 ft | 318 kts | 249° |
| 2026-05-04 00:49 | 34.10562 | -117.36901 | 14043 ft | 322 kts | 249° |
| 2026-05-04 00:49 | 34.09885 | -117.39504 | 13472 ft | 327 kts | 250° |
| 2026-05-04 00:49 | 34.09237 | -117.42133 | 13033 ft | 325 kts | 251° |
| 2026-05-04 00:49 | 34.08595 | -117.44736 | 12616 ft | 322 kts | 251° |
| 2026-05-04 00:50 | 34.07957 | -117.47299 | 12467 ft | 313 kts | 250° |
| 2026-05-04 00:50 | 34.07335 | -117.49788 | 12298 ft | 308 kts | 250° |
| 2026-05-04 00:50 | 34.06704 | -117.52271 | 11951 ft | 310 kts | 250° |
| 2026-05-04 00:50 | 34.06065 | -117.54769 | 11596 ft | 314 kts | 250° |
| 2026-05-04 00:51 | 34.05426 | -117.57261 | 11223 ft | 316 kts | 250° |
| 2026-05-04 00:51 | 34.04774 | -117.59807 | 10846 ft | 318 kts | 250° |
| 2026-05-04 00:51 | 34.04129 | -117.62333 | 10453 ft | 312 kts | 250° |
| 2026-05-04 00:51 | 34.03503 | -117.64781 | 10254 ft | 297 kts | 250° |
| 2026-05-04 00:52 | 34.02911 | -117.67095 | 10106 ft | 283 kts | 250° |
| 2026-05-04 00:52 | 34.02338 | -117.69332 | 10006 ft | 276 kts | 251° |
| 2026-05-04 00:52 | 34.01929 | -117.71613 | 9673 ft | 283 kts | 260° |
| 2026-05-04 00:52 | 34.01717 | -117.73977 | 9379 ft | 281 kts | 262° |
| 2026-05-04 00:53 | 34.01527 | -117.76297 | 9037 ft | 276 kts | 261° |
| 2026-05-04 00:53 | 34.01336 | -117.78577 | 8729 ft | 273 kts | 261° |
| 2026-05-04 00:53 | 34.01128 | -117.80852 | 8426 ft | 272 kts | 261° |
| 2026-05-04 00:53 | 34.00909 | -117.83136 | 8121 ft | 276 kts | 261° |
| 2026-05-04 00:54 | 34.00685 | -117.85452 | 7823 ft | 280 kts | 260° |
| 2026-05-04 00:54 | 34.00456 | -117.87791 | 7506 ft | 281 kts | 261° |
| 2026-05-04 00:54 | 34.00226 | -117.90137 | 7207 ft | 281 kts | 261° |
| 2026-05-04 00:54 | 34.00023 | -117.92473 | 6839 ft | 278 kts | 262° |
| 2026-05-04 00:55 | 33.99829 | -117.94719 | 6547 ft | 270 kts | 261° |
| 2026-05-04 00:55 | 33.99616 | -117.96957 | 6238 ft | 268 kts | 261° |
| 2026-05-04 00:55 | 33.99389 | -117.99206 | 5927 ft | 272 kts | 261° |
| 2026-05-04 00:55 | 33.99157 | -118.01482 | 5574 ft | 275 kts | 261° |
| 2026-05-04 00:56 | 33.98925 | -118.03756 | 5217 ft | 270 kts | 261° |
| 2026-05-04 00:56 | 33.98698 | -118.05984 | 4886 ft | 265 kts | 262° |
| 2026-05-04 00:56 | 33.98508 | -118.07849 | 4638 ft | 262 kts | 261° |
| 2026-05-04 00:56 | 33.98288 | -118.10008 | 4375 ft | 262 kts | 262° |
| 2026-05-04 00:57 | 33.98067 | -118.12175 | 4124 ft | 256 kts | 262° |
| 2026-05-04 00:57 | 33.97855 | -118.14261 | 3865 ft | 246 kts | 262° |
| 2026-05-04 00:57 | 33.97649 | -118.16267 | 3605 ft | 237 kts | 262° |
| 2026-05-04 00:57 | 33.97468 | -118.18191 | 3407 ft | 225 kts | 262° |
| 2026-05-04 00:58 | 33.97289 | -118.20011 | 3229 ft | 211 kts | 261° |
| 2026-05-04 00:58 | 33.97115 | -118.21705 | 3098 ft | 195 kts | 261° |
| 2026-05-04 00:58 | 33.96951 | -118.23281 | 2910 ft | 185 kts | 261° |
| 2026-05-04 00:58 | 33.96794 | -118.24811 | 2683 ft | 183 kts | 261° |
| 2026-05-04 00:59 | 33.96638 | -118.26330 | 2441 ft | 182 kts | 261° |
| 2026-05-04 00:59 | 33.96482 | -118.27828 | 2204 ft | 181 kts | 262° |
| 2026-05-04 00:59 | 33.96326 | -118.29319 | 1938 ft | 177 kts | 261° |
| 2026-05-04 00:59 | 33.96178 | -118.30768 | 1718 ft | 172 kts | 261° |
| 2026-05-04 01:00 | 33.96035 | -118.32165 | 1498 ft | 162 kts | 261° |
| 2026-05-04 01:00 | 33.95902 | -118.33447 | 1262 ft | 149 kts | 262° |
| 2026-05-04 01:00 | 33.95780 | -118.34628 | 1096 ft | 140 kts | 264° |
| 2026-05-04 01:00 | 33.95660 | -118.35802 | 869 ft | 142 kts | 263° |
| 2026-05-04 01:01 | 33.95539 | -118.36982 | 726 ft | 144 kts | 262° |
| 2026-05-04 01:01 | 33.95421 | -118.38153 | 503 ft | 139 kts | 263° |
| 2026-05-04 01:01 | 33.95303 | -118.39274 | 284 ft | 132 kts | 264° |
| 2026-05-04 01:01 | 33.95193 | -118.40369 | 121 ft | 129 kts | 262° |
| 2026-05-04 01:02 | 33.95094 | -118.41322 | 106 ft | 90 kts | 263° |
| 2026-05-04 01:02 | 33.95045 | -118.41806 | 107 ft | 32 kts | 263° |
| 2026-05-04 01:02 | 33.95025 | -118.41978 | 106 ft | 30 kts | 258° |
| 2026-05-04 01:02 | 33.94962 | -118.42163 | 104 ft | 19 kts | 233° |
| 2026-05-04 01:03 | 33.94890 | -118.42249 | 103 ft | 7 kts | 217° |
| 2026-05-04 01:03 | 33.94874 | -118.42261 | 104 ft | 1 kts | 205° |
| 2026-05-04 01:04 | 33.94873 | -118.42262 | 104 ft | 1 kts | 205° |
| 2026-05-04 01:04 | 33.94841 | -118.42276 | 106 ft | 9 kts | 195° |
| 2026-05-04 01:04 | 33.94753 | -118.42279 | 104 ft | 13 kts | 174° |
| 2026-05-04 01:04 | 33.94685 | -118.42223 | 97 ft | 15 kts | 93° |
| 2026-05-04 01:05 | 33.94699 | -118.42080 | 99 ft | 22 kts | 83° |
| 2026-05-04 01:05 | 33.94721 | -118.41852 | 97 ft | 32 kts | 83° |
| 2026-05-04 01:05 | 33.94749 | -118.41579 | 99 ft | 33 kts | 83° |
| 2026-05-04 01:05 | 33.94789 | -118.41313 | 99 ft | 31 kts | 80° |
| 2026-05-04 01:06 | 33.94815 | -118.41064 | 100 ft | 29 kts | 83° |
| 2026-05-04 01:06 | 33.94840 | -118.40832 | 99 ft | 27 kts | 84° |
| 2026-05-04 01:06 | 33.94863 | -118.40612 | 99 ft | 26 kts | 83° |
| 2026-05-04 01:06 | 33.94883 | -118.40416 | 99 ft | 18 kts | 83° |
| 2026-05-04 01:07 | 33.94871 | -118.40302 | 98 ft | 13 kts | 141° |
| 2026-05-04 01:07 | 33.94827 | -118.40236 | 97 ft | 11 kts | 90° |
| 2026-05-04 01:07 | 33.94833 | -118.40162 | 96 ft | 7 kts | 83° |
| 2026-05-04 01:07 | 33.94817 | -118.40123 | 96 ft | 6 kts | 163° |
| 2026-05-04 01:08 | 33.94796 | -118.40124 | 96 ft | 2 kts | 186° |
| 2026-05-04 01:08 | 33.94788 | -118.40125 | 94 ft | 0 kts | 186° |